TimePST,TemperatureF,Dew PointF,Humidity,Sea Level PressureIn,VisibilityMPH,Wind Direction,Wind SpeedMPH,Gust SpeedMPH,PrecipitationIn,Events,Conditions,WindDirDegrees,DateUTC
12:00 AM,39.7,28.6,64,30.02,-9999.0,SSE,6.9,-,N/A,,Unknown,150,2013-02-25 08:00:00
1:00 AM,39.0,29.3,68,29.99,-9999.0,SSE,6.9,-,N/A,,Unknown,160,2013-02-25 09:00:00
2:00 AM,38.5,30.6,73,29.97,-9999.0,SE,5.8,-,N/A,,Unknown,140,2013-02-25 10:00:00
3:00 AM,37.9,31.1,76,29.94,-9999.0,SE,3.5,-,N/A,,Unknown,140,2013-02-25 11:00:00
4:00 AM,36,33,85,29.91,,SSE,5.8,,,,,160,2013-02-25 12:00:00
4:00 AM,35.6,33.1,91,29.91,-9999.0,SSE,5.8,-,N/A,,Unknown,160,2013-02-25 12:00:00
5:00 AM,34.7,33.4,95,29.92,-9999.0,SSE,4.6,-,N/A,,Unknown,150,2013-02-25 13:00:00
6:00 AM,34.9,33.8,96,29.90,-9999.0,South,4.6,-,N/A,,Unknown,170,2013-02-25 14:00:00
7:00 AM,35.1,33.3,93,29.88,-9999.0,South,5.8,-,N/A,,Unknown,180,2013-02-25 15:00:00
8:00 AM,36.0,33.4,91,29.89,-9999.0,SSE,5.8,-,N/A,,Unknown,160,2013-02-25 16:00:00
9:00 AM,35.8,33.4,91,29.88,-9999.0,South,5.8,-,N/A,,Unknown,180,2013-02-25 17:00:00
10:00 AM,38,33,77,29.89,,SSE,5.8,,,,,160,2013-02-25 18:00:00
10:00 AM,37.9,33.3,83,29.89,-9999.0,SSE,5.8,-,N/A,,Unknown,160,2013-02-25 18:00:00
11:00 AM,39.7,33.8,79,29.88,-9999.0,SSE,6.9,-,N/A,,Unknown,150,2013-02-25 19:00:00
12:00 PM,40.1,33.1,76,29.89,-9999.0,SSE,4.6,-,N/A,,Unknown,160,2013-02-25 20:00:00
1:00 PM,40.6,33.4,75,29.90,-9999.0,SSE,3.5,-,N/A,,Unknown,150,2013-02-25 21:00:00
2:00 PM,41.2,31.3,68,29.90,-9999.0,South,4.6,-,N/A,,Unknown,170,2013-02-25 22:00:00
3:00 PM,41.7,31.3,66,29.91,-9999.0,ENE,1.2,-,N/A,,Unknown,70,2013-02-25 23:00:00
4:00 PM,42,33,60,29.93,,WSW,3.5,,,,,240,2013-02-26 00:00:00
4:00 PM,41.9,32.9,70,29.93,-9999.0,WSW,3.5,-,N/A,,Unknown,240,2013-02-26 00:00:00
5:00 PM,42.3,31.5,66,29.94,-9999.0,Calm,Calm,-,N/A,,Unknown,0,2013-02-26 01:00:00
6:00 PM,35.2,30.9,84,29.97,-9999.0,NNE,2.3,-,N/A,,Unknown,20,2013-02-26 02:00:00
7:00 PM,33.4,30.7,90,30.01,-9999.0,ESE,1.2,-,N/A,,Unknown,120,2013-02-26 03:00:00
8:00 PM,30.7,28.9,93,30.04,-9999.0,NNE,1.2,-,N/A,,Unknown,20,2013-02-26 04:00:00
9:00 PM,30.2,28.4,93,30.07,-9999.0,ENE,2.3,-,N/A,,Unknown,60,2013-02-26 05:00:00
10:00 PM,31,30,94,30.10,,SSW,1.2,,,,,210,2013-02-26 06:00:00
10:00 PM,31.5,30.0,94,30.10,-9999.0,SSW,1.2,-,N/A,,Unknown,210,2013-02-26 06:00:00
11:00 PM,31.3,29.5,93,30.14,-9999.0,SSE,2.3,-,N/A,,Unknown,160,2013-02-26 07:00:00